sensor_id;sensor_type;location;lat;lon;timestamp;temperature;humidity
18794;DHT22;29610;49.022;12.114;2023-08-30T00:01:41;12.80;99.90
18794;DHT22;29610;49.022;12.114;2023-08-30T00:04:30;12.80;99.90
18794;DHT22;29610;49.022;12.114;2023-08-30T00:07:20;12.80;99.90
18794;DHT22;29610;49.022;12.114;2023-08-30T00:10:09;12.90;99.90
18794;DHT22;29610;49.022;12.114;2023-08-30T00:12:58;12.90;99.90
18794;DHT22;29610;49.022;12.114;2023-08-30T00:15:47;13.60;99.90
18794;DHT22;29610;49.022;12.114;2023-08-30T00:18:35;13.00;99.90
18794;DHT22;29610;49.022;12.114;2023-08-30T00:21:24;13.00;99.90
18794;DHT22;29610;49.022;12.114;2023-08-30T00:24:15;12.90;99.90
18794;DHT22;29610;49.022;12.114;2023-08-30T00:27:04;13.00;99.90
18794;DHT22;29610;49.022;12.114;2023-08-30T00:29:53;13.00;99.90
18794;DHT22;29610;49.022;12.114;2023-08-30T00:32:42;12.90;99.90
18794;DHT22;29610;49.022;12.114;2023-08-30T00:35:31;12.90;99.90
18794;DHT22;29610;49.022;12.114;2023-08-30T00:38:20;12.80;99.90
18794;DHT22;29610;49.022;12.114;2023-08-30T00:41:10;12.80;99.90
18794;DHT22;29610;49.022;12.114;2023-08-30T00:43:59;12.80;99.90
18794;DHT22;29610;49.022;12.114;2023-08-30T00:46:48;12.70;99.90
18794;DHT22;29610;49.022;12.114;2023-08-30T00:49:37;12.80;99.90
18794;DHT22;29610;49.022;12.114;2023-08-30T00:52:26;12.70;99.90
18794;DHT22;29610;49.022;12.114;2023-08-30T00:55:15;12.70;99.90
18794;DHT22;29610;49.022;12.114;2023-08-30T00:58:05;12.80;99.90
18794;DHT22;29610;49.022;12.114;2023-08-30T01:00:56;12.70;99.90
18794;DHT22;29610;49.022;12.114;2023-08-30T01:03:45;12.70;99.90
18794;DHT22;29610;49.022;12.114;2023-08-30T01:06:33;12.60;99.90
18794;DHT22;29610;49.022;12.114;2023-08-30T01:09:23;12.60;99.90
18794;DHT22;29610;49.022;12.114;2023-08-30T01:12:16;12.60;99.90
18794;DHT22;29610;49.022;12.114;2023-08-30T01:15:13;12.70;99.90
18794;DHT22;29610;49.022;12.114;2023-08-30T01:18:07;12.70;99.90
18794;DHT22;29610;49.022;12.114;2023-08-30T01:21:02;12.70;99.90
18794;DHT22;29610;49.022;12.114;2023-08-30T01:23:58;12.70;99.90
18794;DHT22;29610;49.022;12.114;2023-08-30T01:27:02;12.70;99.90
18794;DHT22;29610;49.022;12.114;2023-08-30T01:29:57;12.70;99.90
18794;DHT22;29610;49.022;12.114;2023-08-30T01:32:46;12.80;99.90
18794;DHT22;29610;49.022;12.114;2023-08-30T01:35:38;12.80;99.90
18794;DHT22;29610;49.022;12.114;2023-08-30T01:38:29;12.80;99.90
18794;DHT22;29610;49.022;12.114;2023-08-30T01:41:21;12.80;99.90
18794;DHT22;29610;49.022;12.114;2023-08-30T01:44:14;12.70;99.90
18794;DHT22;29610;49.022;12.114;2023-08-30T01:47:04;12.70;99.90
18794;DHT22;29610;49.022;12.114;2023-08-30T01:49:54;12.80;99.90
18794;DHT22;29610;49.022;12.114;2023-08-30T01:52:44;12.70;99.90
18794;DHT22;29610;49.022;12.114;2023-08-30T01:55:35;12.70;99.90
18794;DHT22;29610;49.022;12.114;2023-08-30T01:58:26;12.70;99.90
18794;DHT22;29610;49.022;12.114;2023-08-30T02:01:16;12.60;99.90
18794;DHT22;29610;49.022;12.114;2023-08-30T02:04:05;12.60;99.90
18794;DHT22;29610;49.022;12.114;2023-08-30T02:06:59;12.60;99.90
18794;DHT22;29610;49.022;12.114;2023-08-30T02:09:57;12.70;99.90
18794;DHT22;29610;49.022;12.114;2023-08-30T02:12:50;12.70;99.90
18794;DHT22;29610;49.022;12.114;2023-08-30T02:15:41;12.60;99.90
18794;DHT22;29610;49.022;12.114;2023-08-30T02:18:33;12.60;99.90
18794;DHT22;29610;49.022;12.114;2023-08-30T02:21:25;12.50;99.90
18794;DHT22;29610;49.022;12.114;2023-08-30T02:24:14;12.60;99.90
18794;DHT22;29610;49.022;12.114;2023-08-30T02:27:03;12.60;99.90
18794;DHT22;29610;49.022;12.114;2023-08-30T02:29:53;12.50;99.90
18794;DHT22;29610;49.022;12.114;2023-08-30T02:32:43;12.50;99.90
18794;DHT22;29610;49.022;12.114;2023-08-30T02:35:33;12.50;99.90
18794;DHT22;29610;49.022;12.114;2023-08-30T02:38:23;12.40;99.90
18794;DHT22;29610;49.022;12.114;2023-08-30T02:41:12;12.50;99.90
18794;DHT22;29610;49.022;12.114;2023-08-30T02:44:00;12.50;99.90
18794;DHT22;29610;49.022;12.114;2023-08-30T02:46:49;12.40;99.90
18794;DHT22;29610;49.022;12.114;2023-08-30T02:49:38;12.40;99.90
18794;DHT22;29610;49.022;12.114;2023-08-30T02:52:28;12.40;99.90
18794;DHT22;29610;49.022;12.114;2023-08-30T02:55:16;12.40;99.90
18794;DHT22;29610;49.022;12.114;2023-08-30T02:58:05;12.40;99.90
18794;DHT22;29610;49.022;12.114;2023-08-30T03:00:54;12.40;99.90
18794;DHT22;29610;49.022;12.114;2023-08-30T03:03:43;12.40;99.90
18794;DHT22;29610;49.022;12.114;2023-08-30T03:06:33;12.40;99.90
18794;DHT22;29610;49.022;12.114;2023-08-30T03:09:24;12.40;99.90
18794;DHT22;29610;49.022;12.114;2023-08-30T03:12:13;12.40;99.90
18794;DHT22;29610;49.022;12.114;2023-08-30T03:15:01;12.40;99.90
18794;DHT22;29610;49.022;12.114;2023-08-30T03:17:51;12.40;99.90
18794;DHT22;29610;49.022;12.114;2023-08-30T03:20:40;12.40;99.90
18794;DHT22;29610;49.022;12.114;2023-08-30T03:23:30;12.40;99.90
18794;DHT22;29610;49.022;12.114;2023-08-30T03:26:21;12.40;99.90
18794;DHT22;29610;49.022;12.114;2023-08-30T03:29:10;12.40;99.90
18794;DHT22;29610;49.022;12.114;2023-08-30T03:31:59;12.40;99.90
18794;DHT22;29610;49.022;12.114;2023-08-30T03:34:48;12.40;99.90
18794;DHT22;29610;49.022;12.114;2023-08-30T03:37:38;12.40;99.90
18794;DHT22;29610;49.022;12.114;2023-08-30T03:40:27;12.40;99.90
18794;DHT22;29610;49.022;12.114;2023-08-30T03:43:17;12.30;99.90
18794;DHT22;29610;49.022;12.114;2023-08-30T03:46:06;12.40;99.90
18794;DHT22;29610;49.022;12.114;2023-08-30T03:48:57;12.30;99.90
18794;DHT22;29610;49.022;12.114;2023-08-30T03:51:46;12.30;99.90
18794;DHT22;29610;49.022;12.114;2023-08-30T03:54:34;12.40;99.90
18794;DHT22;29610;49.022;12.114;2023-08-30T03:57:23;12.30;99.90
18794;DHT22;29610;49.022;12.114;2023-08-30T04:00:13;12.30;99.90
18794;DHT22;29610;49.022;12.114;2023-08-30T04:03:03;12.20;99.90
18794;DHT22;29610;49.022;12.114;2023-08-30T04:05:55;12.20;99.90
18794;DHT22;29610;49.022;12.114;2023-08-30T04:08:44;12.10;99.90
18794;DHT22;29610;49.022;12.114;2023-08-30T04:11:33;12.20;99.90
18794;DHT22;29610;49.022;12.114;2023-08-30T04:14:21;12.10;99.90
18794;DHT22;29610;49.022;12.114;2023-08-30T04:17:12;12.10;99.90
18794;DHT22;29610;49.022;12.114;2023-08-30T04:20:01;12.40;99.90
18794;DHT22;29610;49.022;12.114;2023-08-30T04:22:53;12.10;99.90
18794;DHT22;29610;49.022;12.114;2023-08-30T04:25:44;12.10;99.90
18794;DHT22;29610;49.022;12.114;2023-08-30T04:28:33;12.10;99.90
18794;DHT22;29610;49.022;12.114;2023-08-30T04:31:21;12.10;99.90
18794;DHT22;29610;49.022;12.114;2023-08-30T04:34:11;12.10;99.90
18794;DHT22;29610;49.022;12.114;2023-08-30T04:37:00;12.30;99.90
18794;DHT22;29610;49.022;12.114;2023-08-30T04:39:50;12.10;99.90
18794;DHT22;29610;49.022;12.114;2023-08-30T04:42:41;12.10;99.90
18794;DHT22;29610;49.022;12.114;2023-08-30T04:45:31;12.20;99.90
18794;DHT22;29610;49.022;12.114;2023-08-30T04:48:19;12.20;99.90
18794;DHT22;29610;49.022;12.114;2023-08-30T04:51:10;12.20;99.90
18794;DHT22;29610;49.022;12.114;2023-08-30T04:53:59;12.30;99.90
18794;DHT22;29610;49.022;12.114;2023-08-30T04:56:48;12.30;99.90
18794;DHT22;29610;49.022;12.114;2023-08-30T04:59:36;12.30;99.90
18794;DHT22;29610;49.022;12.114;2023-08-30T05:02:27;12.40;99.90
18794;DHT22;29610;49.022;12.114;2023-08-30T05:05:25;12.50;99.90
18794;DHT22;29610;49.022;12.114;2023-08-30T05:08:17;13.10;99.90
18794;DHT22;29610;49.022;12.114;2023-08-30T05:11:07;12.60;99.90
18794;DHT22;29610;49.022;12.114;2023-08-30T05:13:57;12.70;99.90
18794;DHT22;29610;49.022;12.114;2023-08-30T05:16:46;12.90;99.90
18794;DHT22;29610;49.022;12.114;2023-08-30T05:19:39;12.90;99.90
18794;DHT22;29610;49.022;12.114;2023-08-30T05:22:27;12.80;99.90
18794;DHT22;29610;49.022;12.114;2023-08-30T05:25:18;12.80;99.90
18794;DHT22;29610;49.022;12.114;2023-08-30T05:28:06;12.90;99.90
18794;DHT22;29610;49.022;12.114;2023-08-30T05:30:56;13.00;99.90
18794;DHT22;29610;49.022;12.114;2023-08-30T05:33:50;13.00;99.90
18794;DHT22;29610;49.022;12.114;2023-08-30T05:37:04;13.20;99.90
18794;DHT22;29610;49.022;12.114;2023-08-30T05:40:13;13.20;99.90
18794;DHT22;29610;49.022;12.114;2023-08-30T05:43:05;13.20;99.90
18794;DHT22;29610;49.022;12.114;2023-08-30T05:45:54;13.30;99.90
18794;DHT22;29610;49.022;12.114;2023-08-30T05:48:48;13.20;99.90
18794;DHT22;29610;49.022;12.114;2023-08-30T05:51:37;13.20;99.90
18794;DHT22;29610;49.022;12.114;2023-08-30T05:54:26;13.20;99.90
18794;DHT22;29610;49.022;12.114;2023-08-30T05:57:17;13.10;99.90
18794;DHT22;29610;49.022;12.114;2023-08-30T06:00:08;13.60;99.90
18794;DHT22;29610;49.022;12.114;2023-08-30T06:03:00;13.20;99.90
18794;DHT22;29610;49.022;12.114;2023-08-30T06:05:50;13.20;99.90
18794;DHT22;29610;49.022;12.114;2023-08-30T06:08:38;13.40;99.90
18794;DHT22;29610;49.022;12.114;2023-08-30T06:11:27;13.40;99.90
18794;DHT22;29610;49.022;12.114;2023-08-30T06:14:15;13.50;99.90
18794;DHT22;29610;49.022;12.114;2023-08-30T06:17:05;13.40;99.90
18794;DHT22;29610;49.022;12.114;2023-08-30T06:19:54;13.60;99.90
18794;DHT22;29610;49.022;12.114;2023-08-30T06:22:42;13.60;99.90
18794;DHT22;29610;49.022;12.114;2023-08-30T06:25:32;13.60;99.90
18794;DHT22;29610;49.022;12.114;2023-08-30T06:28:21;13.70;99.90
18794;DHT22;29610;49.022;12.114;2023-08-30T06:31:09;13.70;99.90
18794;DHT22;29610;49.022;12.114;2023-08-30T06:34:02;13.80;99.90
18794;DHT22;29610;49.022;12.114;2023-08-30T06:36:51;13.90;99.90
18794;DHT22;29610;49.022;12.114;2023-08-30T06:39:39;13.90;99.90
18794;DHT22;29610;49.022;12.114;2023-08-30T06:42:28;13.90;99.90
18794;DHT22;29610;49.022;12.114;2023-08-30T06:45:16;14.00;99.90
18794;DHT22;29610;49.022;12.114;2023-08-30T06:48:06;14.10;99.90
18794;DHT22;29610;49.022;12.114;2023-08-30T06:50:58;14.10;99.90
18794;DHT22;29610;49.022;12.114;2023-08-30T06:53:47;14.10;99.90
18794;DHT22;29610;49.022;12.114;2023-08-30T06:56:36;14.20;99.90
18794;DHT22;29610;49.022;12.114;2023-08-30T06:59:25;14.10;99.90
18794;DHT22;29610;49.022;12.114;2023-08-30T07:02:13;14.20;99.90
18794;DHT22;29610;49.022;12.114;2023-08-30T07:05:02;14.20;99.90
18794;DHT22;29610;49.022;12.114;2023-08-30T07:07:53;14.20;99.90
18794;DHT22;29610;49.022;12.114;2023-08-30T07:10:42;14.20;99.90
18794;DHT22;29610;49.022;12.114;2023-08-30T07:13:31;14.10;99.90
18794;DHT22;29610;49.022;12.114;2023-08-30T07:16:19;14.10;99.90
18794;DHT22;29610;49.022;12.114;2023-08-30T07:19:08;14.10;99.90
18794;DHT22;29610;49.022;12.114;2023-08-30T07:21:57;15.20;99.90
18794;DHT22;29610;49.022;12.114;2023-08-30T07:24:47;14.30;99.90
18794;DHT22;29610;49.022;12.114;2023-08-30T07:27:35;14.30;99.90
18794;DHT22;29610;49.022;12.114;2023-08-30T07:30:24;14.30;99.90
18794;DHT22;29610;49.022;12.114;2023-08-30T07:33:13;14.30;99.90
18794;DHT22;29610;49.022;12.114;2023-08-30T07:36:01;14.30;99.90
18794;DHT22;29610;49.022;12.114;2023-08-30T07:38:51;14.40;99.90
18794;DHT22;29610;49.022;12.114;2023-08-30T07:41:41;14.40;99.90
18794;DHT22;29610;49.022;12.114;2023-08-30T07:44:30;14.30;99.90
18794;DHT22;29610;49.022;12.114;2023-08-30T07:47:18;14.30;99.90
18794;DHT22;29610;49.022;12.114;2023-08-30T07:50:08;14.30;99.90
18794;DHT22;29610;49.022;12.114;2023-08-30T07:52:56;14.30;99.90
18794;DHT22;29610;49.022;12.114;2023-08-30T07:55:48;14.50;99.90
18794;DHT22;29610;49.022;12.114;2023-08-30T07:58:40;14.50;99.90
18794;DHT22;29610;49.022;12.114;2023-08-30T08:01:29;14.70;99.90
18794;DHT22;29610;49.022;12.114;2023-08-30T08:04:18;14.80;99.90
18794;DHT22;29610;49.022;12.114;2023-08-30T08:07:06;15.00;99.90
18794;DHT22;29610;49.022;12.114;2023-08-30T08:09:56;15.10;99.90
18794;DHT22;29610;49.022;12.114;2023-08-30T08:12:45;15.50;99.90
18794;DHT22;29610;49.022;12.114;2023-08-30T08:15:35;15.60;99.90
18794;DHT22;29610;49.022;12.114;2023-08-30T08:18:24;15.90;99.90
18794;DHT22;29610;49.022;12.114;2023-08-30T08:21:14;15.90;99.90
18794;DHT22;29610;49.022;12.114;2023-08-30T08:24:03;16.30;99.90
18794;DHT22;29610;49.022;12.114;2023-08-30T08:26:52;16.50;99.90
18794;DHT22;29610;49.022;12.114;2023-08-30T08:29:40;16.90;99.90
18794;DHT22;29610;49.022;12.114;2023-08-30T08:32:30;16.90;99.90
18794;DHT22;29610;49.022;12.114;2023-08-30T08:35:19;17.40;99.90
18794;DHT22;29610;49.022;12.114;2023-08-30T08:38:07;17.70;99.90
18794;DHT22;29610;49.022;12.114;2023-08-30T08:41:02;18.00;99.90
18794;DHT22;29610;49.022;12.114;2023-08-30T08:43:53;18.40;99.90
18794;DHT22;29610;49.022;12.114;2023-08-30T08:46:42;18.30;99.90
18794;DHT22;29610;49.022;12.114;2023-08-30T08:49:32;18.60;99.90
18794;DHT22;29610;49.022;12.114;2023-08-30T08:52:21;18.60;99.90
18794;DHT22;29610;49.022;12.114;2023-08-30T08:55:20;18.70;99.90
18794;DHT22;29610;49.022;12.114;2023-08-30T08:58:09;18.60;99.90
18794;DHT22;29610;49.022;12.114;2023-08-30T09:01:00;18.50;99.90
18794;DHT22;29610;49.022;12.114;2023-08-30T09:03:49;18.50;99.90
18794;DHT22;29610;49.022;12.114;2023-08-30T09:06:40;18.70;99.90
18794;DHT22;29610;49.022;12.114;2023-08-30T09:09:30;18.80;99.90
18794;DHT22;29610;49.022;12.114;2023-08-30T09:12:19;18.90;99.90
18794;DHT22;29610;49.022;12.114;2023-08-30T09:15:08;19.30;99.90
18794;DHT22;29610;49.022;12.114;2023-08-30T09:17:57;19.60;99.90
18794;DHT22;29610;49.022;12.114;2023-08-30T09:20:46;19.50;99.90
18794;DHT22;29610;49.022;12.114;2023-08-30T09:23:36;19.10;99.90
18794;DHT22;29610;49.022;12.114;2023-08-30T09:26:25;19.20;99.90
18794;DHT22;29610;49.022;12.114;2023-08-30T09:29:16;19.30;99.90
18794;DHT22;29610;49.022;12.114;2023-08-30T09:32:08;19.30;99.90
18794;DHT22;29610;49.022;12.114;2023-08-30T09:34:56;19.80;99.90
18794;DHT22;29610;49.022;12.114;2023-08-30T09:37:45;19.90;99.90
18794;DHT22;29610;49.022;12.114;2023-08-30T09:40:35;20.30;99.90
18794;DHT22;29610;49.022;12.114;2023-08-30T09:43:24;20.80;99.90
18794;DHT22;29610;49.022;12.114;2023-08-30T09:46:12;20.90;99.90
18794;DHT22;29610;49.022;12.114;2023-08-30T09:49:01;21.00;99.90
18794;DHT22;29610;49.022;12.114;2023-08-30T09:51:53;20.90;99.90
18794;DHT22;29610;49.022;12.114;2023-08-30T09:54:43;20.70;99.90
18794;DHT22;29610;49.022;12.114;2023-08-30T09:57:34;20.60;99.90
18794;DHT22;29610;49.022;12.114;2023-08-30T10:00:24;20.20;99.90
18794;DHT22;29610;49.022;12.114;2023-08-30T10:03:13;19.70;99.90
18794;DHT22;29610;49.022;12.114;2023-08-30T10:06:18;19.70;99.90
18794;DHT22;29610;49.022;12.114;2023-08-30T10:09:08;19.80;99.90
18794;DHT22;29610;49.022;12.114;2023-08-30T10:11:58;19.90;99.90
18794;DHT22;29610;49.022;12.114;2023-08-30T10:14:49;20.30;99.90
18794;DHT22;29610;49.022;12.114;2023-08-30T10:17:41;20.50;99.90
18794;DHT22;29610;49.022;12.114;2023-08-30T10:20:33;20.80;99.00
18794;DHT22;29610;49.022;12.114;2023-08-30T10:23:25;21.00;98.30
18794;DHT22;29610;49.022;12.114;2023-08-30T10:26:16;21.40;98.10
18794;DHT22;29610;49.022;12.114;2023-08-30T10:29:06;21.60;97.10
18794;DHT22;29610;49.022;12.114;2023-08-30T10:32:01;21.80;97.40
18794;DHT22;29610;49.022;12.114;2023-08-30T10:34:51;22.40;94.90
18794;DHT22;29610;49.022;12.114;2023-08-30T10:37:41;22.60;94.10
18794;DHT22;29610;49.022;12.114;2023-08-30T10:40:30;22.80;95.10
18794;DHT22;29610;49.022;12.114;2023-08-30T10:43:28;22.60;94.60
18794;DHT22;29610;49.022;12.114;2023-08-30T10:46:29;22.20;94.70
18794;DHT22;29610;49.022;12.114;2023-08-30T10:49:21;21.80;96.10
18794;DHT22;29610;49.022;12.114;2023-08-30T10:52:12;21.40;94.60
18794;DHT22;29610;49.022;12.114;2023-08-30T10:55:08;21.30;95.30
18794;DHT22;29610;49.022;12.114;2023-08-30T10:57:59;21.00;95.00
18794;DHT22;29610;49.022;12.114;2023-08-30T11:00:50;21.10;93.30
18794;DHT22;29610;49.022;12.114;2023-08-30T11:03:40;20.90;94.90
18794;DHT22;29610;49.022;12.114;2023-08-30T11:06:31;21.00;94.20
18794;DHT22;29610;49.022;12.114;2023-08-30T11:09:21;21.20;95.10
18794;DHT22;29610;49.022;12.114;2023-08-30T11:12:11;21.20;94.40
18794;DHT22;29610;49.022;12.114;2023-08-30T11:15:00;21.20;93.40
18794;DHT22;29610;49.022;12.114;2023-08-30T11:17:49;21.10;94.60
18794;DHT22;29610;49.022;12.114;2023-08-30T11:20:37;21.20;94.70
18794;DHT22;29610;49.022;12.114;2023-08-30T11:23:27;21.40;95.20
18794;DHT22;29610;49.022;12.114;2023-08-30T11:26:17;22.10;93.90
18794;DHT22;29610;49.022;12.114;2023-08-30T11:29:06;22.10;92.40
18794;DHT22;29610;49.022;12.114;2023-08-30T11:31:55;22.20;94.50
18794;DHT22;29610;49.022;12.114;2023-08-30T11:34:44;21.80;93.40
18794;DHT22;29610;49.022;12.114;2023-08-30T11:37:44;21.30;93.50
18794;DHT22;29610;49.022;12.114;2023-08-30T11:40:34;21.00;94.60
18794;DHT22;29610;49.022;12.114;2023-08-30T11:43:24;20.60;94.10
18794;DHT22;29610;49.022;12.114;2023-08-30T11:46:12;20.20;94.80
18794;DHT22;29610;49.022;12.114;2023-08-30T11:49:01;19.90;94.40
18794;DHT22;29610;49.022;12.114;2023-08-30T11:51:51;19.70;96.50
18794;DHT22;29610;49.022;12.114;2023-08-30T11:54:42;19.40;94.40
18794;DHT22;29610;49.022;12.114;2023-08-30T11:57:35;19.40;95.50
18794;DHT22;29610;49.022;12.114;2023-08-30T12:00:24;19.30;96.10
18794;DHT22;29610;49.022;12.114;2023-08-30T12:03:14;19.20;98.70
18794;DHT22;29610;49.022;12.114;2023-08-30T12:06:09;19.10;99.60
18794;DHT22;29610;49.022;12.114;2023-08-30T12:08:59;19.00;99.70
18794;DHT22;29610;49.022;12.114;2023-08-30T12:11:48;18.90;99.90
18794;DHT22;29610;49.022;12.114;2023-08-30T12:14:38;18.50;99.80
18794;DHT22;29610;49.022;12.114;2023-08-30T12:17:27;18.40;99.90
18794;DHT22;29610;49.022;12.114;2023-08-30T12:20:15;18.10;99.90
18794;DHT22;29610;49.022;12.114;2023-08-30T12:23:19;17.90;99.90
18794;DHT22;29610;49.022;12.114;2023-08-30T12:26:09;17.70;99.90
18794;DHT22;29610;49.022;12.114;2023-08-30T12:28:58;17.60;99.90
18794;DHT22;29610;49.022;12.114;2023-08-30T12:31:48;17.40;99.90
18794;DHT22;29610;49.022;12.114;2023-08-30T12:34:37;17.00;99.90
18794;DHT22;29610;49.022;12.114;2023-08-30T12:37:26;16.90;99.90
18794;DHT22;29610;49.022;12.114;2023-08-30T12:40:14;17.20;99.90
18794;DHT22;29610;49.022;12.114;2023-08-30T12:43:03;17.50;99.90
18794;DHT22;29610;49.022;12.114;2023-08-30T12:45:52;17.60;99.90
18794;DHT22;29610;49.022;12.114;2023-08-30T12:48:42;17.60;99.90
18794;DHT22;29610;49.022;12.114;2023-08-30T12:51:31;17.70;99.90
18794;DHT22;29610;49.022;12.114;2023-08-30T12:54:19;17.90;99.90
18794;DHT22;29610;49.022;12.114;2023-08-30T12:57:08;18.00;99.90
18794;DHT22;29610;49.022;12.114;2023-08-30T12:59:57;18.00;99.90
18794;DHT22;29610;49.022;12.114;2023-08-30T13:02:45;18.20;99.90
18794;DHT22;29610;49.022;12.114;2023-08-30T13:05:36;18.50;99.90
18794;DHT22;29610;49.022;12.114;2023-08-30T13:08:24;18.80;99.90
18794;DHT22;29610;49.022;12.114;2023-08-30T13:11:13;18.90;99.90
18794;DHT22;29610;49.022;12.114;2023-08-30T13:14:01;19.20;99.90
18794;DHT22;29610;49.022;12.114;2023-08-30T13:16:50;19.50;99.90
18794;DHT22;29610;49.022;12.114;2023-08-30T13:19:39;20.00;99.90
18794;DHT22;29610;49.022;12.114;2023-08-30T13:22:29;20.00;99.90
18794;DHT22;29610;49.022;12.114;2023-08-30T13:25:17;20.00;99.90
18794;DHT22;29610;49.022;12.114;2023-08-30T13:28:06;19.90;99.90
18794;DHT22;29610;49.022;12.114;2023-08-30T13:30:55;19.70;99.90
18794;DHT22;29610;49.022;12.114;2023-08-30T13:33:44;19.80;99.90
18794;DHT22;29610;49.022;12.114;2023-08-30T13:36:32;19.70;99.90
18794;DHT22;29610;49.022;12.114;2023-08-30T13:39:24;19.40;99.90
18794;DHT22;29610;49.022;12.114;2023-08-30T13:42:12;19.40;99.90
18794;DHT22;29610;49.022;12.114;2023-08-30T13:45:01;19.30;99.90
18794;DHT22;29610;49.022;12.114;2023-08-30T13:47:50;19.30;99.90
18794;DHT22;29610;49.022;12.114;2023-08-30T13:50:41;19.40;99.90
18794;DHT22;29610;49.022;12.114;2023-08-30T13:53:30;19.50;99.90
18794;DHT22;29610;49.022;12.114;2023-08-30T13:56:20;19.70;99.90
18794;DHT22;29610;49.022;12.114;2023-08-30T13:59:08;19.70;99.90
18794;DHT22;29610;49.022;12.114;2023-08-30T14:01:57;19.60;99.90
18794;DHT22;29610;49.022;12.114;2023-08-30T14:04:49;19.60;99.90
18794;DHT22;29610;49.022;12.114;2023-08-30T14:07:38;19.50;99.90
18794;DHT22;29610;49.022;12.114;2023-08-30T14:10:26;19.40;99.90
18794;DHT22;29610;49.022;12.114;2023-08-30T14:13:16;19.30;99.90
18794;DHT22;29610;49.022;12.114;2023-08-30T14:16:05;19.30;99.90
18794;DHT22;29610;49.022;12.114;2023-08-30T14:18:54;19.30;99.90
18794;DHT22;29610;49.022;12.114;2023-08-30T14:21:42;19.30;99.90
18794;DHT22;29610;49.022;12.114;2023-08-30T14:24:31;19.40;99.90
18794;DHT22;29610;49.022;12.114;2023-08-30T14:27:29;19.50;99.90
18794;DHT22;29610;49.022;12.114;2023-08-30T14:30:19;19.60;99.90
18794;DHT22;29610;49.022;12.114;2023-08-30T14:33:07;19.60;99.90
18794;DHT22;29610;49.022;12.114;2023-08-30T14:35:57;19.60;99.90
18794;DHT22;29610;49.022;12.114;2023-08-30T14:38:48;19.70;99.90
18794;DHT22;29610;49.022;12.114;2023-08-30T14:41:37;19.50;99.90
18794;DHT22;29610;49.022;12.114;2023-08-30T14:44:25;19.40;99.90
18794;DHT22;29610;49.022;12.114;2023-08-30T14:47:16;19.10;99.90
18794;DHT22;29610;49.022;12.114;2023-08-30T14:50:06;18.90;99.90
18794;DHT22;29610;49.022;12.114;2023-08-30T14:52:55;18.70;99.90
18794;DHT22;29610;49.022;12.114;2023-08-30T14:55:44;18.50;99.90
18794;DHT22;29610;49.022;12.114;2023-08-30T14:58:33;18.40;99.90
18794;DHT22;29610;49.022;12.114;2023-08-30T15:01:23;18.30;99.90
18794;DHT22;29610;49.022;12.114;2023-08-30T15:04:13;18.20;99.90
18794;DHT22;29610;49.022;12.114;2023-08-30T15:07:02;18.10;99.90
18794;DHT22;29610;49.022;12.114;2023-08-30T15:09:51;18.20;99.90
18794;DHT22;29610;49.022;12.114;2023-08-30T15:12:40;18.30;99.90
18794;DHT22;29610;49.022;12.114;2023-08-30T15:15:28;18.40;99.90
18794;DHT22;29610;49.022;12.114;2023-08-30T15:18:19;18.40;99.90
18794;DHT22;29610;49.022;12.114;2023-08-30T15:21:09;18.40;99.90
18794;DHT22;29610;49.022;12.114;2023-08-30T15:23:57;18.30;99.90
18794;DHT22;29610;49.022;12.114;2023-08-30T15:26:46;18.40;99.90
18794;DHT22;29610;49.022;12.114;2023-08-30T15:29:35;18.20;99.90
18794;DHT22;29610;49.022;12.114;2023-08-30T15:32:23;18.20;99.90
18794;DHT22;29610;49.022;12.114;2023-08-30T15:35:12;18.20;99.90
18794;DHT22;29610;49.022;12.114;2023-08-30T15:38:02;18.10;99.90
18794;DHT22;29610;49.022;12.114;2023-08-30T15:40:53;17.90;99.90
18794;DHT22;29610;49.022;12.114;2023-08-30T15:43:42;17.90;99.90
18794;DHT22;29610;49.022;12.114;2023-08-30T15:46:31;17.70;99.90
18794;DHT22;29610;49.022;12.114;2023-08-30T15:49:20;17.70;99.90
18794;DHT22;29610;49.022;12.114;2023-08-30T15:52:09;17.70;99.90
18794;DHT22;29610;49.022;12.114;2023-08-30T15:54:59;17.60;99.90
18794;DHT22;29610;49.022;12.114;2023-08-30T15:57:48;17.70;99.90
18794;DHT22;29610;49.022;12.114;2023-08-30T16:00:36;17.60;99.90
18794;DHT22;29610;49.022;12.114;2023-08-30T16:03:28;17.60;99.90
18794;DHT22;29610;49.022;12.114;2023-08-30T16:06:17;17.60;99.90
18794;DHT22;29610;49.022;12.114;2023-08-30T16:09:06;17.50;99.90
18794;DHT22;29610;49.022;12.114;2023-08-30T16:11:56;17.40;99.90
18794;DHT22;29610;49.022;12.114;2023-08-30T16:14:44;17.40;99.90
18794;DHT22;29610;49.022;12.114;2023-08-30T16:17:33;17.30;99.90
18794;DHT22;29610;49.022;12.114;2023-08-30T16:20:22;17.20;99.90
18794;DHT22;29610;49.022;12.114;2023-08-30T16:23:11;17.10;99.90
18794;DHT22;29610;49.022;12.114;2023-08-30T16:26:00;17.10;99.90
18794;DHT22;29610;49.022;12.114;2023-08-30T16:28:51;17.00;99.90
18794;DHT22;29610;49.022;12.114;2023-08-30T16:31:40;16.90;99.90
18794;DHT22;29610;49.022;12.114;2023-08-30T16:34:28;16.80;99.90
18794;DHT22;29610;49.022;12.114;2023-08-30T16:37:17;16.70;99.90
18794;DHT22;29610;49.022;12.114;2023-08-30T16:40:08;16.70;99.90
18794;DHT22;29610;49.022;12.114;2023-08-30T16:42:57;16.60;99.90
18794;DHT22;29610;49.022;12.114;2023-08-30T16:45:47;16.50;99.90
18794;DHT22;29610;49.022;12.114;2023-08-30T16:48:35;16.50;99.90
18794;DHT22;29610;49.022;12.114;2023-08-30T16:51:25;16.50;99.90
18794;DHT22;29610;49.022;12.114;2023-08-30T16:54:14;16.40;99.90
18794;DHT22;29610;49.022;12.114;2023-08-30T16:57:02;16.30;99.90
18794;DHT22;29610;49.022;12.114;2023-08-30T16:59:51;16.20;99.90
18794;DHT22;29610;49.022;12.114;2023-08-30T17:02:41;16.20;99.90
18794;DHT22;29610;49.022;12.114;2023-08-30T17:05:29;16.10;99.90
18794;DHT22;29610;49.022;12.114;2023-08-30T17:08:18;16.10;99.90
18794;DHT22;29610;49.022;12.114;2023-08-30T17:11:08;16.00;99.90
18794;DHT22;29610;49.022;12.114;2023-08-30T17:13:57;16.00;99.90
18794;DHT22;29610;49.022;12.114;2023-08-30T17:16:45;16.00;99.90
18794;DHT22;29610;49.022;12.114;2023-08-30T17:19:35;15.90;99.90
18794;DHT22;29610;49.022;12.114;2023-08-30T17:22:24;16.30;99.90
18794;DHT22;29610;49.022;12.114;2023-08-30T17:25:13;15.90;99.90
18794;DHT22;29610;49.022;12.114;2023-08-30T17:28:03;15.90;99.90
18794;DHT22;29610;49.022;12.114;2023-08-30T17:30:52;15.90;99.90
18794;DHT22;29610;49.022;12.114;2023-08-30T17:33:41;15.80;99.90
18794;DHT22;29610;49.022;12.114;2023-08-30T17:36:30;15.70;99.90